Time;durP1;ratioP1;P1;durP2;ratioP2;P2;SDS_P1;SDS_P2;PMS_P1;PMS_P2;Temp;Humidity;BMP_temperature;BMP_pressure;BME280_temperature;BME280_humidity;BME280_pressure;Samples;Min_cycle;Max_cycle;Signal;HPM_P1;HPM_P2
2023/05/01 00:00:50;;;;;;;13.75;7.40;;;11.60;99.90;;;;;;4899261;29;20020;-74
2023/05/01 00:07:29;;;;;;;12.43;7.18;;;11.50;99.90;;;;;;4995808;23;20456;-76
2023/05/01 00:09:58;;;;;;;13.27;7.47;;;11.50;99.90;;;;;;4905060;29;20396;-73
2023/05/01 00:12:25;;;;;;;13.15;7.80;;;11.50;99.90;;;;;;4900513;29;20048;-77
2023/05/01 00:14:52;;;;;;;16.70;7.65;;;11.50;99.90;;;;;;4900058;29;20029;-76
2023/05/01 00:17:18;;;;;;;10.95;6.85;;;11.60;99.90;;;;;;4900154;29;20080;-76
2023/05/01 00:19:44;;;;;;;11.27;7.00;;;11.50;99.90;;;;;;4883336;29;20076;-75
2023/05/01 00:22:10;;;;;;;13.52;7.93;;;11.60;99.90;;;;;;4900320;29;20063;-77
2023/05/01 00:24:36;;;;;;;12.68;7.03;;;11.60;99.90;;;;;;4899858;29;20076;-74
2023/05/01 00:27:02;;;;;;;12.30;7.22;;;11.50;99.90;;;;;;4900312;29;20024;-76
2023/05/01 00:29:28;;;;;;;12.65;7.18;;;11.50;99.90;;;;;;4883539;29;20032;-77
2023/05/01 00:31:54;;;;;;;13.60;7.40;;;11.50;99.90;;;;;;4883190;29;20028;-76
2023/05/01 00:34:21;;;;;;;13.60;7.20;;;11.40;99.90;;;;;;4883212;29;20031;-76
2023/05/01 00:36:46;;;;;;;11.00;7.03;;;11.30;99.90;;;;;;4899727;29;20080;-74
2023/05/01 00:39:12;;;;;;;12.85;6.93;;;11.40;99.90;;;;;;4883013;29;20425;-74
2023/05/01 00:41:38;;;;;;;17.02;7.43;;;11.30;99.90;;;;;;4899700;29;20072;-73
2023/05/01 00:44:04;;;;;;;11.80;7.40;;;11.40;99.90;;;;;;4899755;29;20098;-78
2023/05/01 00:46:32;;;;;;;12.15;6.80;;;11.30;99.90;;;;;;4899647;29;20544;-73
2023/05/01 00:48:59;;;;;;;14.50;7.00;;;11.20;99.90;;;;;;4899425;29;20025;-75
2023/05/01 00:51:27;;;;;;;11.93;7.03;;;11.20;99.90;;;;;;4882442;29;20032;-77
2023/05/01 00:53:54;;;;;;;15.32;8.05;;;11.10;99.90;;;;;;4899536;29;20021;-74
2023/05/01 00:56:20;;;;;;;15.45;8.35;;;11.00;99.90;;;;;;4881762;29;20041;-77
2023/05/01 00:58:52;;;;;;;13.60;7.57;;;10.90;99.90;;;;;;4896245;29;20044;-73
2023/05/01 01:01:22;;;;;;;12.20;6.80;;;10.90;99.90;;;;;;4899627;29;20424;-77
2023/05/01 01:03:53;;;;;;;16.08;8.52;;;10.90;99.90;;;;;;4899514;29;20611;-73
2023/05/01 01:06:34;;;;;;;10.50;6.28;;;11.00;99.90;;;;;;4882098;29;20056;-73
2023/05/01 01:09:31;;;;;;;14.05;7.35;;;11.10;99.90;;;;;;4899267;29;20040;-78
2023/05/01 01:12:18;;;;;;;14.60;7.20;;;11.00;99.90;;;;;;4895145;29;20092;-77
2023/05/01 01:14:54;;;;;;;14.50;7.18;;;11.00;99.90;;;;;;4893684;29;20028;-74
2023/05/01 01:17:30;;;;;;;11.77;7.43;;;11.00;99.90;;;;;;4882076;29;20420;-77
2023/05/01 01:20:15;;;;;;;11.45;6.82;;;11.10;99.90;;;;;;4882345;29;20043;-77
2023/05/01 01:22:46;;;;;;;12.95;6.68;;;11.00;99.90;;;;;;4882467;29;20060;-74
2023/05/01 01:25:24;;;;;;;11.90;7.13;;;11.10;99.90;;;;;;4899150;29;20123;-76
2023/05/01 01:28:27;;;;;;;12.05;6.93;;;11.20;99.90;;;;;;4899313;29;20409;-77
2023/05/01 01:31:00;;;;;;;11.15;6.43;;;11.20;99.90;;;;;;4882370;29;20084;-77
2023/05/01 01:33:53;;;;;;;10.50;6.38;;;11.10;99.90;;;;;;4897723;29;20401;-75
2023/05/01 01:36:37;;;;;;;11.48;6.53;;;11.10;99.90;;;;;;4888158;29;20045;-78
2023/05/01 01:39:41;;;;;;;11.50;6.80;;;11.10;99.90;;;;;;4898618;29;20032;-74
2023/05/01 01:42:12;;;;;;;11.05;6.00;;;11.00;99.90;;;;;;4898870;29;20051;-77
2023/05/01 01:44:46;;;;;;;12.75;7.10;;;11.00;99.90;;;;;;4898650;29;20024;-75
2023/05/01 01:47:14;;;;;;;16.92;6.85;;;10.90;99.90;;;;;;4898351;29;20413;-75
2023/05/01 01:49:45;;;;;;;11.73;6.82;;;10.80;99.90;;;;;;4899122;29;20024;-77
2023/05/01 01:52:14;;;;;;;11.07;6.57;;;10.80;99.90;;;;;;4881702;29;20029;-76
2023/05/01 01:54:51;;;;;;;11.27;6.90;;;10.90;99.90;;;;;;4881891;29;20407;-75
2023/05/01 01:57:20;;;;;;;13.88;7.60;;;10.90;99.90;;;;;;4891927;29;20060;-78
2023/05/01 01:59:48;;;;;;;10.77;6.55;;;10.90;99.90;;;;;;4880437;29;20468;-76
2023/05/01 02:02:18;;;;;;;12.80;7.07;;;10.80;99.90;;;;;;4881648;29;20045;-77
2023/05/01 02:04:46;;;;;;;11.38;6.28;;;10.80;99.90;;;;;;4881530;29;20124;-78
2023/05/01 02:07:15;;;;;;;10.48;6.25;;;10.90;99.90;;;;;;4878245;29;20053;-77
2023/05/01 02:09:43;;;;;;;9.60;5.88;;;10.80;99.90;;;;;;4879109;29;20441;-76
2023/05/01 02:12:11;;;;;;;10.73;6.93;;;10.70;99.90;;;;;;4878331;29;20037;-74
2023/05/01 02:14:38;;;;;;;14.43;7.03;;;10.70;99.90;;;;;;4878496;29;20124;-76
2023/05/01 02:17:05;;;;;;;12.45;6.53;;;10.70;99.90;;;;;;4878226;29;20137;-76
2023/05/01 02:19:33;;;;;;;14.38;6.82;;;10.70;99.90;;;;;;4879551;29;20024;-77
2023/05/01 02:22:01;;;;;;;12.00;6.72;;;10.70;99.90;;;;;;4878078;29;20025;-74
2023/05/01 02:24:29;;;;;;;12.43;6.85;;;10.50;99.90;;;;;;4879454;29;20024;-75
2023/05/01 02:27:10;;;;;;;17.98;9.00;;;10.50;99.90;;;;;;4879366;29;20056;-76
2023/05/01 02:29:37;;;;;;;13.00;8.43;;;10.40;99.90;;;;;;4877957;29;20056;-77
2023/05/01 02:32:02;;;;;;;17.17;9.00;;;10.40;99.90;;;;;;4879428;29;20032;-77
2023/05/01 02:34:28;;;;;;;18.40;8.45;;;10.50;99.90;;;;;;4877810;29;20101;-75
2023/05/01 02:36:54;;;;;;;11.55;7.43;;;10.50;99.90;;;;;;4879096;29;20533;-77
2023/05/01 02:39:21;;;;;;;13.60;8.55;;;10.40;99.90;;;;;;4877880;29;20037;-74
2023/05/01 02:41:49;;;;;;;17.35;10.68;;;10.40;99.90;;;;;;4879073;29;20029;-76
2023/05/01 02:44:15;;;;;;;13.68;7.93;;;10.40;99.90;;;;;;4877800;29;20088;-74
2023/05/01 02:46:44;;;;;;;16.42;8.77;;;10.40;99.90;;;;;;4879044;29;20029;-78
2023/05/01 02:49:12;;;;;;;14.18;8.25;;;10.50;99.90;;;;;;4877761;29;20033;-78
2023/05/01 02:51:39;;;;;;;11.85;8.13;;;10.50;99.90;;;;;;4877306;29;20096;-76
2023/05/01 02:54:06;;;;;;;14.15;7.65;;;10.30;99.90;;;;;;4879306;29;20032;-74
2023/05/01 02:56:32;;;;;;;15.55;9.05;;;10.40;99.90;;;;;;4877544;29;20021;-78
2023/05/01 02:58:58;;;;;;;15.50;9.15;;;10.40;99.90;;;;;;4878899;29;20056;-75
2023/05/01 03:01:24;;;;;;;18.52;9.82;;;10.40;99.90;;;;;;4877221;29;20080;-74
2023/05/01 03:03:51;;;;;;;17.58;11.05;;;10.40;99.90;;;;;;4877834;29;20028;-74
2023/05/01 03:06:18;;;;;;;15.65;9.40;;;10.40;99.90;;;;;;4879595;29;20029;-79
2023/05/01 03:08:44;;;;;;;15.75;10.23;;;10.40;99.90;;;;;;4880670;29;20103;-78
2023/05/01 03:11:10;;;;;;;14.65;8.98;;;10.30;99.90;;;;;;4896957;29;20107;-78
2023/05/01 03:13:36;;;;;;;16.77;10.00;;;10.30;99.90;;;;;;4897153;29;20218;-75
2023/05/01 03:16:03;;;;;;;15.98;9.07;;;10.30;99.90;;;;;;4897087;29;20029;-74
2023/05/01 03:18:29;;;;;;;16.98;10.05;;;10.40;99.90;;;;;;4897414;29;20028;-77
2023/05/01 03:20:55;;;;;;;14.38;8.93;;;10.40;99.90;;;;;;4896518;29;20044;-79
2023/05/01 03:23:23;;;;;;;14.90;9.30;;;10.40;99.90;;;;;;4879944;29;20036;-74
2023/05/01 03:25:50;;;;;;;15.73;9.93;;;10.40;99.90;;;;;;4880320;29;20071;-77
2023/05/01 03:28:16;;;;;;;14.32;8.38;;;10.40;99.90;;;;;;4897040;29;20451;-79
2023/05/01 03:30:43;;;;;;;17.52;8.95;;;10.40;99.90;;;;;;4880270;29;20033;-78
2023/05/01 03:33:09;;;;;;;15.68;10.65;;;10.30;99.90;;;;;;4897014;29;20028;-74
2023/05/01 03:35:35;;;;;;;17.27;10.93;;;10.30;99.90;;;;;;4895528;29;20024;-75
2023/05/01 03:38:02;;;;;;;28.55;17.20;;;10.40;99.90;;;;;;4880075;29;20064;-75
2023/05/01 03:40:46;;;;;;;23.95;15.07;;;10.40;99.90;;;;;;4897076;29;20051;-73
2023/05/01 03:43:31;;;;;;;15.32;8.80;;;10.50;99.90;;;;;;4896950;29;20115;-75
2023/05/01 03:46:00;;;;;;;15.23;9.35;;;10.80;99.90;;;;;;4880216;29;20041;-76
2023/05/01 03:48:26;;;;;;;16.15;9.23;;;11.00;99.90;;;;;;4879724;29;20046;-80
2023/05/01 03:50:51;;;;;;;14.45;8.15;;;11.40;99.90;;;;;;4897032;29;20032;-74
2023/05/01 03:53:17;;;;;;;15.10;8.32;;;11.60;99.90;;;;;;4876702;29;20023;-73
2023/05/01 03:55:44;;;;;;;14.95;9.10;;;12.00;99.90;;;;;;4873991;29;20032;-75
2023/05/01 03:58:12;;;;;;;16.42;8.75;;;12.30;99.90;;;;;;4878313;29;20029;-74
2023/05/01 04:00:38;;;;;;;13.02;8.40;;;12.60;99.90;;;;;;4895543;29;20119;-72
2023/05/01 04:03:04;;;;;;;12.05;7.68;;;13.00;99.90;;;;;;4896090;29;20443;-74
2023/05/01 04:05:32;;;;;;;14.18;8.65;;;13.30;99.90;;;;;;4880079;29;20045;-79
2023/05/01 04:08:01;;;;;;;16.48;8.93;;;13.30;99.90;;;;;;4879519;29;20445;-77
2023/05/01 04:10:27;;;;;;;14.70;9.20;;;13.40;99.90;;;;;;4872970;29;20044;-73
2023/05/01 04:12:57;;;;;;;13.25;8.75;;;13.50;99.90;;;;;;4870739;29;20036;-74
2023/05/01 04:15:23;;;;;;;13.90;8.50;;;13.90;99.90;;;;;;4876047;29;20045;-73
2023/05/01 04:17:49;;;;;;;15.13;9.45;;;14.40;99.90;;;;;;4895422;29;20025;-76
2023/05/01 04:20:18;;;;;;;15.55;10.02;;;15.10;99.90;;;;;;4879806;29;20045;-75
2023/05/01 04:22:43;;;;;;;18.38;12.73;;;15.50;99.90;;;;;;4879579;29;20020;-73
2023/05/01 04:25:09;;;;;;;15.93;10.75;;;15.70;98.40;;;;;;4878020;29;20040;-75
2023/05/01 04:27:35;;;;;;;17.40;11.38;;;16.20;97.10;;;;;;4866291;29;20388;-73
2023/05/01 04:30:02;;;;;;;18.45;13.23;;;16.30;96.50;;;;;;4894891;29;20048;-72
2023/05/01 04:32:29;;;;;;;20.98;13.18;;;16.80;96.30;;;;;;4879738;29;20052;-74
2023/05/01 04:34:55;;;;;;;20.40;11.38;;;16.60;94.90;;;;;;4900087;29;20476;-74
2023/05/01 04:37:21;;;;;;;17.13;11.60;;;16.90;94.40;;;;;;4866806;29;20033;-75
2023/05/01 04:39:47;;;;;;;21.23;11.38;;;17.30;93.80;;;;;;4881611;29;20036;-71
2023/05/01 04:42:13;;;;;;;15.93;11.05;;;17.40;93.90;;;;;;4882175;29;20036;-74
2023/05/01 04:44:39;;;;;;;16.08;10.23;;;17.90;93.40;;;;;;4883036;29;20032;-75
2023/05/01 04:47:05;;;;;;;13.07;8.80;;;18.30;92.30;;;;;;4881494;29;20039;-73
2023/05/01 04:49:31;;;;;;;17.38;9.98;;;19.00;92.10;;;;;;4883924;29;20120;-76
2023/05/01 04:51:57;;;;;;;16.88;10.38;;;19.20;90.80;;;;;;4882272;29;20032;-77
2023/05/01 04:54:28;;;;;;;13.88;9.27;;;19.20;90.20;;;;;;4879140;29;20048;-70
2023/05/01 04:56:54;;;;;;;12.27;8.30;;;20.10;89.10;;;;;;4882686;29;20068;-78
2023/05/01 04:59:20;;;;;;;18.83;8.32;;;20.50;89.40;;;;;;4881996;29;20063;-75
2023/05/01 05:01:46;;;;;;;13.93;8.35;;;20.70;86.20;;;;;;4882432;29;20040;-72
2023/05/01 05:04:12;;;;;;;14.02;9.10;;;20.30;87.20;;;;;;4898213;29;20485;-73
2023/05/01 05:06:38;;;;;;;14.23;8.00;;;19.10;89.50;;;;;;4888994;29;20053;-75
2023/05/01 05:09:08;;;;;;;16.05;8.88;;;18.60;90.30;;;;;;4882365;29;20293;-75
2023/05/01 05:11:34;;;;;;;14.07;8.52;;;18.20;90.40;;;;;;4898242;29;20439;-74
2023/05/01 05:14:03;;;;;;;14.45;8.00;;;17.80;91.40;;;;;;4882300;29;20499;-73
2023/05/01 05:16:29;;;;;;;15.00;8.68;;;17.60;92.10;;;;;;4895671;29;20021;-72
2023/05/01 05:18:56;;;;;;;15.02;8.57;;;17.50;93.00;;;;;;4876518;29;20049;-71
2023/05/01 05:21:23;;;;;;;17.35;9.48;;;17.50;93.10;;;;;;4897552;29;20024;-73
2023/05/01 05:23:53;;;;;;;16.27;8.93;;;17.40;93.00;;;;;;4882203;29;20472;-72
2023/05/01 05:26:19;;;;;;;13.93;7.55;;;17.50;94.10;;;;;;4896295;29;20039;-72
2023/05/01 05:28:47;;;;;;;13.77;7.63;;;17.40;93.30;;;;;;4897734;29;20033;-75
2023/05/01 05:31:13;;;;;;;13.13;7.38;;;17.10;93.70;;;;;;4897426;29;20067;-76
2023/05/01 05:33:39;;;;;;;10.55;6.72;;;16.70;94.20;;;;;;4882129;29;20028;-74
2023/05/01 05:36:05;;;;;;;12.82;6.55;;;16.10;95.40;;;;;;4881879;29;20038;-74
2023/05/01 05:38:37;;;;;;;12.27;7.40;;;16.30;96.20;;;;;;4879608;29;20059;-72
2023/05/01 05:41:05;;;;;;;10.60;6.55;;;16.00;97.10;;;;;;4897726;29;20085;-73
2023/05/01 05:43:32;;;;;;;12.05;6.90;;;15.60;97.30;;;;;;4881779;29;20029;-72
2023/05/01 05:45:59;;;;;;;11.30;6.15;;;15.70;99.00;;;;;;4889829;29;20037;-72
2023/05/01 05:48:26;;;;;;;11.15;6.10;;;16.00;99.40;;;;;;4871242;29;20492;-72
2023/05/01 05:50:52;;;;;;;10.30;6.45;;;16.10;99.20;;;;;;4895163;29;20063;-74
2023/05/01 05:53:20;;;;;;;12.18;6.78;;;16.10;99.90;;;;;;4880552;29;20033;-75
2023/05/01 05:55:47;;;;;;;10.70;5.80;;;16.40;99.90;;;;;;4881195;29;20519;-72
2023/05/01 05:58:18;;;;;;;9.93;6.07;;;16.70;99.90;;;;;;4881089;29;20380;-72
2023/05/01 06:00:47;;;;;;;11.38;6.75;;;16.70;98.50;;;;;;4891266;29;20045;-71
2023/05/01 06:03:13;;;;;;;10.73;6.00;;;16.70;99.20;;;;;;4879539;29;20039;-72
2023/05/01 06:05:43;;;;;;;11.10;6.07;;;17.00;98.30;;;;;;4890489;29;20040;-75
2023/05/01 06:08:11;;;;;;;12.70;5.50;;;17.10;97.60;;;;;;4894024;29;20158;-76
2023/05/01 06:10:40;;;;;;;8.93;5.45;;;17.40;98.50;;;;;;4876369;29;20135;-73
2023/05/01 06:13:07;;;;;;;13.50;6.47;;;17.50;96.70;;;;;;4867973;29;20042;-76
2023/05/01 06:15:37;;;;;;;12.02;5.93;;;17.60;95.40;;;;;;4893109;29;20033;-76
2023/05/01 06:18:04;;;;;;;10.95;6.63;;;17.80;96.70;;;;;;4878163;29;20079;-73
2023/05/01 06:20:30;;;;;;;11.13;6.82;;;18.00;96.40;;;;;;4893929;29;20067;-74
2023/05/01 06:22:56;;;;;;;11.00;6.75;;;18.40;96.70;;;;;;4894143;29;20443;-73
2023/05/01 06:25:31;;;;;;;12.50;7.07;;;18.40;93.90;;;;;;4878968;29;20547;-74
2023/05/01 06:27:57;;;;;;;15.32;7.75;;;18.60;93.60;;;;;;4889078;29;20044;-73
2023/05/01 06:30:23;;;;;;;16.77;8.10;;;18.40;95.20;;;;;;4877395;29;20134;-73
2023/05/01 06:32:49;;;;;;;16.10;7.53;;;18.70;93.70;;;;;;4874276;29;20029;-76
2023/05/01 06:35:16;;;;;;;13.73;7.50;;;18.80;94.00;;;;;;4876065;29;20032;-78
2023/05/01 06:37:41;;;;;;;13.85;8.23;;;19.00;94.20;;;;;;4875916;29;20393;-76
2023/05/01 06:40:09;;;;;;;11.82;7.00;;;18.90;93.90;;;;;;4893879;29;20037;-76
2023/05/01 06:42:37;;;;;;;13.90;8.65;;;19.30;94.00;;;;;;4880026;29;20028;-75
2023/05/01 06:45:04;;;;;;;12.55;8.00;;;19.50;94.40;;;;;;4873286;29;20453;-72
2023/05/01 06:47:32;;;;;;;16.60;8.32;;;19.50;93.10;;;;;;4884335;29;20021;-78
2023/05/01 06:49:58;;;;;;;14.75;9.00;;;19.50;93.30;;;;;;4888488;29;20053;-75
2023/05/01 06:52:24;;;;;;;12.85;7.65;;;19.70;92.90;;;;;;4874793;29;20025;-75
2023/05/01 06:54:50;;;;;;;15.63;8.10;;;19.90;92.90;;;;;;4871749;29;20395;-78
2023/05/01 06:57:16;;;;;;;24.00;7.43;;;20.00;92.40;;;;;;4893684;29;20424;-73
2023/05/01 06:59:42;;;;;;;14.68;7.72;;;19.90;92.80;;;;;;4880734;29;20025;-76
2023/05/01 07:02:09;;;;;;;13.38;8.15;;;19.80;91.90;;;;;;4897298;29;20552;-77
2023/05/01 07:04:34;;;;;;;14.27;8.13;;;19.90;93.00;;;;;;4897273;29;20020;-75
2023/05/01 07:07:02;;;;;;;14.45;9.00;;;20.00;93.50;;;;;;4896952;29;20435;-73
2023/05/01 07:09:27;;;;;;;11.82;6.85;;;19.90;91.90;;;;;;4897492;29;20037;-73
2023/05/01 07:11:55;;;;;;;11.40;7.70;;;19.60;92.20;;;;;;4884853;29;20020;-76
2023/05/01 07:14:22;;;;;;;22.10;8.05;;;19.40;92.20;;;;;;4897293;29;20037;-75
2023/05/01 07:16:48;;;;;;;13.55;6.88;;;19.60;93.40;;;;;;4897444;29;20178;-75
2023/05/01 07:19:14;;;;;;;13.35;7.60;;;19.80;93.20;;;;;;4881702;29;20033;-75
2023/05/01 07:21:40;;;;;;;14.63;8.10;;;19.90;93.10;;;;;;4887911;29;20097;-74
2023/05/01 07:24:06;;;;;;;13.75;7.32;;;19.90;91.40;;;;;;4896704;29;20029;-73
2023/05/01 07:26:32;;;;;;;18.92;7.38;;;20.00;91.50;;;;;;4897368;29;20044;-76
2023/05/01 07:28:58;;;;;;;12.45;7.50;;;19.90;92.40;;;;;;4897128;29;20021;-75
2023/05/01 07:31:24;;;;;;;13.65;7.32;;;19.90;92.90;;;;;;4894667;29;20036;-77
2023/05/01 07:33:49;;;;;;;14.32;7.95;;;20.50;92.20;;;;;;4889472;29;20057;-75
2023/05/01 07:36:17;;;;;;;12.88;7.15;;;20.70;91.00;;;;;;4893777;29;20069;-76
2023/05/01 07:38:44;;;;;;;11.43;6.78;;;20.60;91.10;;;;;;4887869;29;20025;-75
2023/05/01 07:41:09;;;;;;;21.85;7.38;;;20.70;92.00;;;;;;4882516;29;20196;-74
2023/05/01 07:43:35;;;;;;;13.25;7.40;;;21.00;90.80;;;;;;4878507;29;20104;-75
2023/05/01 07:46:01;;;;;;;12.52;7.70;;;20.90;90.40;;;;;;4890678;29;20176;-75
2023/05/01 07:48:27;;;;;;;14.30;7.50;;;20.80;91.80;;;;;;4878291;29;20095;-75
2023/05/01 07:50:54;;;;;;;14.68;8.23;;;20.70;89.10;;;;;;4889812;29;20124;-76
2023/05/01 07:53:23;;;;;;;13.02;6.90;;;20.80;89.30;;;;;;4896708;29;20025;-75
2023/05/01 07:55:48;;;;;;;11.55;6.88;;;20.70;91.60;;;;;;4896269;29;20111;-76
2023/05/01 07:58:16;;;;;;;13.50;6.93;;;20.80;90.50;;;;;;4897714;29;20457;-75
2023/05/01 08:00:43;;;;;;;15.95;7.45;;;20.80;90.50;;;;;;4892918;29;20061;-76
2023/05/01 08:03:15;;;;;;;15.77;8.25;;;20.90;90.90;;;;;;4902611;23;20051;-75
2023/05/01 08:05:41;;;;;;;12.93;7.47;;;20.80;90.10;;;;;;4914737;29;20036;-75
2023/05/01 08:08:08;;;;;;;14.65;7.75;;;20.80;90.00;;;;;;4913077;29;20043;-76
2023/05/01 08:10:34;;;;;;;14.90;7.88;;;20.70;90.00;;;;;;4908815;29;20508;-74
2023/05/01 08:13:00;;;;;;;11.02;6.55;;;21.10;91.00;;;;;;4895626;29;20629;-74
2023/05/01 08:15:27;;;;;;;11.90;6.95;;;20.90;89.60;;;;;;4918930;29;20033;-74
2023/05/01 08:17:53;;;;;;;13.82;7.22;;;21.00;90.00;;;;;;4918281;29;20036;-75
2023/05/01 08:20:19;;;;;;;14.77;8.05;;;21.10;90.00;;;;;;4918644;29;20035;-74
2023/05/01 08:22:45;;;;;;;17.10;7.25;;;21.00;87.00;;;;;;4916061;29;20028;-73
2023/05/01 08:25:11;;;;;;;12.20;7.45;;;21.00;88.80;;;;;;4918023;29;20377;-75
2023/05/01 08:27:37;;;;;;;11.48;7.18;;;20.70;89.50;;;;;;4918229;29;20388;-75
2023/05/01 08:30:04;;;;;;;15.20;7.82;;;20.80;89.00;;;;;;4909373;29;20070;-78
2023/05/01 08:32:29;;;;;;;11.23;6.85;;;20.70;88.40;;;;;;4901205;29;20032;-77
2023/05/01 08:34:55;;;;;;;11.73;6.72;;;20.70;88.40;;;;;;4916543;29;20461;-76
2023/05/01 08:37:21;;;;;;;13.70;6.57;;;20.70;88.70;;;;;;4907685;29;20088;-76
2023/05/01 08:39:47;;;;;;;11.13;6.65;;;20.70;89.00;;;;;;4896017;29;20490;-76
2023/05/01 08:42:13;;;;;;;9.20;6.00;;;20.30;89.80;;;;;;4917680;29;20028;-77
2023/05/01 08:44:41;;;;;;;9.93;6.00;;;20.70;88.80;;;;;;4917889;29;20036;-76
2023/05/01 08:47:17;;;;;;;16.63;6.15;;;20.90;90.50;;;;;;4900569;29;20032;-75
2023/05/01 08:49:44;;;;;;;8.38;5.40;;;21.00;90.90;;;;;;4882255;29;20055;-77
2023/05/01 08:52:12;;;;;;;11.98;6.55;;;21.00;90.50;;;;;;4909649;29;20028;-77
2023/05/01 08:54:49;;;;;;;9.48;5.72;;;21.20;89.20;;;;;;4918278;29;20096;-75
2023/05/01 08:57:16;;;;;;;8.93;5.15;;;21.00;88.20;;;;;;4917859;29;20040;-77
2023/05/01 08:59:43;;;;;;;10.30;5.35;;;20.90;87.30;;;;;;4917903;29;20028;-77
2023/05/01 09:02:09;;;;;;;9.50;5.35;;;20.70;88.00;;;;;;4918577;29;20555;-77
2023/05/01 09:04:37;;;;;;;8.57;4.78;;;20.60;88.70;;;;;;4919378;29;20139;-76
2023/05/01 09:07:04;;;;;;;8.85;5.18;;;20.40;86.40;;;;;;4912366;29;20527;-75
2023/05/01 09:09:36;;;;;;;5.75;3.20;;;20.60;86.80;;;;;;4900098;29;20040;-74
2023/05/01 09:12:22;;;;;;;6.63;3.50;;;21.10;84.80;;;;;;4885978;29;20028;-74
2023/05/01 09:14:51;;;;;;;5.60;3.60;;;21.40;85.00;;;;;;4900835;29;20048;-74
2023/05/01 09:17:17;;;;;;;8.90;3.53;;;21.70;86.60;;;;;;4918034;29;20024;-77
2023/05/01 09:19:44;;;;;;;6.13;3.60;;;22.00;87.90;;;;;;4916968;29;20387;-77
2023/05/01 09:22:09;;;;;;;10.10;4.18;;;22.10;86.00;;;;;;4912263;29;20437;-77
2023/05/01 09:24:35;;;;;;;8.15;3.55;;;22.30;85.30;;;;;;4912974;29;20032;-77
2023/05/01 09:27:01;;;;;;;7.40;4.22;;;22.40;86.10;;;;;;4918114;29;20051;-76
2023/05/01 09:29:38;;;;;;;12.00;4.43;;;22.20;85.30;;;;;;4918571;29;20042;-76
2023/05/01 09:32:23;;;;;;;9.25;4.03;;;21.80;86.50;;;;;;4917748;29;20068;-76
2023/05/01 09:34:54;;;;;;;7.93;4.28;;;21.70;85.70;;;;;;4917721;29;20036;-75
2023/05/01 09:37:28;;;;;;;8.68;4.25;;;21.80;85.30;;;;;;4918828;29;20056;-76
2023/05/01 09:40:25;;;;;;;7.18;3.78;;;21.90;88.80;;;;;;4908756;29;20392;-75
2023/05/01 09:42:54;;;;;;;10.38;4.20;;;22.00;87.10;;;;;;4918690;29;20041;-76
2023/05/01 09:45:22;;;;;;;9.63;4.40;;;21.80;86.70;;;;;;4901125;29;20043;-76
2023/05/01 09:47:48;;;;;;;8.15;4.30;;;21.70;87.50;;;;;;4919867;29;20039;-76
2023/05/01 09:50:36;;;;;;;7.03;4.30;;;22.00;88.40;;;;;;4929405;29;20004;-78
2023/05/01 09:53:05;;;;;;;6.00;4.13;;;22.30;88.60;;;;;;4903382;29;20048;-77
2023/05/01 09:55:32;;;;;;;10.13;4.25;;;22.50;87.00;;;;;;4896948;29;20433;-74
2023/05/01 09:57:58;;;;;;;14.13;4.28;;;22.60;87.20;;;;;;4911545;29;20043;-73
2023/05/01 10:00:24;;;;;;;8.35;4.80;;;22.10;86.40;;;;;;4917564;29;20020;-77
2023/05/01 10:02:50;;;;;;;10.73;4.32;;;22.30;87.70;;;;;;4918380;29;20071;-75
2023/05/01 10:05:17;;;;;;;12.32;4.63;;;22.60;87.90;;;;;;4920781;29;20055;-74
2023/05/01 10:07:57;;;;;;;8.05;3.80;;;22.70;87.60;;;;;;4902527;29;20040;-75
2023/05/01 10:10:29;;;;;;;7.50;3.75;;;22.80;87.50;;;;;;4919825;29;20021;-77
2023/05/01 10:12:55;;;;;;;7.65;4.25;;;22.20;86.40;;;;;;4908340;29;20128;-78
2023/05/01 10:15:36;;;;;;;7.57;4.03;;;21.90;88.20;;;;;;4917439;29;20068;-77
2023/05/01 10:18:03;;;;;;;8.18;4.20;;;22.20;87.80;;;;;;4917750;29;20032;-77
2023/05/01 10:20:31;;;;;;;8.80;4.10;;;22.50;90.10;;;;;;4916581;29;20017;-76
2023/05/01 10:23:03;;;;;;;4.03;3.30;;;22.60;85.80;;;;;;4900462;29;20035;-76
2023/05/01 10:25:31;;;;;;;4.28;3.33;;;23.00;85.60;;;;;;4919219;29;20074;-75
2023/05/01 10:27:57;;;;;;;7.38;3.80;;;22.80;84.20;;;;;;4917172;29;20024;-76
2023/05/01 10:30:25;;;;;;;10.50;4.18;;;22.90;85.60;;;;;;4916607;29;20054;-74
2023/05/01 10:32:51;;;;;;;6.22;3.33;;;23.10;86.60;;;;;;4899199;29;20094;-76
2023/05/01 10:35:22;;;;;;;7.30;3.58;;;23.00;85.90;;;;;;4916870;29;20046;-75
2023/05/01 10:38:00;;;;;;;4.53;3.30;;;22.60;86.10;;;;;;4915300;29;20356;-75
2023/05/01 10:40:38;;;;;;;9.05;5.45;;;21.90;83.30;;;;;;4911902;29;20067;-76
2023/05/01 10:43:16;;;;;;;10.90;5.07;;;22.30;83.60;;;;;;4917186;29;20456;-76
2023/05/01 10:45:44;;;;;;;9.75;3.33;;;22.20;83.10;;;;;;4914696;29;20506;-77
2023/05/01 10:48:10;;;;;;;8.50;3.13;;;22.20;84.40;;;;;;4917239;29;20024;-77
2023/05/01 10:51:16;;;;;;;6.45;3.53;;;22.30;85.80;;;;;;4916494;29;20039;-76
2023/05/01 10:53:43;;;;;;;5.10;2.50;;;22.00;83.60;;;;;;4895979;29;20028;-77
2023/05/01 10:56:24;;;;;;;6.88;2.92;;;22.20;83.40;;;;;;4916565;29;20080;-74
2023/05/01 10:59:06;;;;;;;6.60;3.20;;;21.60;83.50;;;;;;4916309;29;20024;-75
2023/05/01 11:01:50;;;;;;;7.75;3.10;;;22.20;86.70;;;;;;4916227;29;20032;-73
2023/05/01 11:04:20;;;;;;;6.95;3.13;;;22.50;84.70;;;;;;4916373;29;20122;-74
2023/05/01 11:07:04;;;;;;;9.73;3.13;;;22.90;85.10;;;;;;4916196;29;20488;-74
2023/05/01 11:09:53;;;;;;;5.38;3.05;;;22.90;82.00;;;;;;4917302;29;20536;-76
2023/05/01 11:12:51;;;;;;;4.90;3.20;;;22.90;84.80;;;;;;4916897;29;20032;-75
2023/05/01 11:15:36;;;;;;;4.28;2.67;;;22.90;82.60;;;;;;4916218;29;20028;-77
2023/05/01 11:18:04;;;;;;;4.78;2.92;;;22.90;82.00;;;;;;4899011;29;20059;-77
2023/05/01 11:20:36;;;;;;;8.77;3.65;;;22.60;81.20;;;;;;4903399;29;20080;-75
2023/05/01 11:23:02;;;;;;;7.97;4.03;;;22.40;82.30;;;;;;4910828;29;20032;-77
2023/05/01 11:25:30;;;;;;;6.45;3.58;;;22.30;84.30;;;;;;4921535;29;20035;-75
2023/05/01 11:28:01;;;;;;;5.18;3.13;;;22.60;84.60;;;;;;4922652;29;20028;-78
2023/05/01 11:30:40;;;;;;;6.43;2.93;;;22.60;83.00;;;;;;4919201;29;20039;-75
2023/05/01 11:33:06;;;;;;;6.10;3.38;;;22.70;80.70;;;;;;4916833;29;20547;-75
2023/05/01 11:35:32;;;;;;;6.53;2.95;;;22.90;82.60;;;;;;4887091;29;20032;-72
2023/05/01 11:37:59;;;;;;;5.75;3.28;;;22.80;82.00;;;;;;4915262;29;20087;-75
2023/05/01 11:40:30;;;;;;;5.55;2.92;;;22.80;81.00;;;;;;4884796;29;20039;-72
2023/05/01 11:43:05;;;;;;;6.00;3.10;;;22.80;82.20;;;;;;4895840;29;20029;-73
2023/05/01 11:45:32;;;;;;;5.88;2.95;;;22.80;81.60;;;;;;4899271;29;20036;-72
2023/05/01 11:47:58;;;;;;;4.32;2.70;;;22.90;81.20;;;;;;4896268;29;20047;-73
2023/05/01 11:50:36;;;;;;;5.90;3.63;;;22.80;78.30;;;;;;4910715;29;20469;-73
2023/05/01 11:53:16;;;;;;;3.63;2.88;;;22.60;78.60;;;;;;4896395;29;20416;-73
2023/05/01 11:55:50;;;;;;;6.45;3.08;;;22.70;79.70;;;;;;4896920;29;20044;-73
2023/05/01 11:58:17;;;;;;;5.25;3.80;;;22.60;79.30;;;;;;4891526;29;20035;-73
2023/05/01 12:00:49;;;;;;;7.82;3.42;;;22.40;80.20;;;;;;4908479;29;20024;-76
2023/05/01 12:03:16;;;;;;;4.35;3.38;;;22.30;79.40;;;;;;4914815;29;20048;-77
2023/05/01 12:05:43;;;;;;;19.80;5.20;;;22.40;76.70;;;;;;4915123;29;20406;-76
2023/05/01 12:08:18;;;;;;;7.18;3.20;;;22.30;79.30;;;;;;4915068;29;20039;-75
2023/05/01 12:10:46;;;;;;;7.38;4.07;;;22.60;77.90;;;;;;4908951;29;20107;-76
2023/05/01 12:13:22;;;;;;;6.60;4.05;;;22.80;82.10;;;;;;4908569;29;20032;-77
2023/05/01 12:15:52;;;;;;;8.55;3.05;;;23.00;80.10;;;;;;4909909;29;20040;-76
2023/05/01 12:18:27;;;;;;;7.00;3.90;;;22.90;77.90;;;;;;4915858;29;20127;-76
2023/05/01 12:20:57;;;;;;;7.00;2.90;;;22.80;78.50;;;;;;4914403;29;20080;-77
2023/05/01 12:23:34;;;;;;;5.22;3.15;;;22.50;76.40;;;;;;4897977;29;20024;-76
2023/05/01 12:26:02;;;;;;;4.90;3.47;;;22.60;78.60;;;;;;4879101;29;20140;-76
2023/05/01 12:28:28;;;;;;;4.57;3.08;;;22.70;78.50;;;;;;4911461;29;20024;-75
2023/05/01 12:31:00;;;;;;;3.88;2.80;;;22.80;77.40;;;;;;4908221;29;20029;-77
2023/05/01 12:33:30;;;;;;;5.25;2.05;;;22.50;78.40;;;;;;4895748;29;20056;-76
2023/05/01 12:36:09;;;;;;;7.03;2.83;;;22.00;72.40;;;;;;5018712;23;20052;-76
2023/05/01 12:38:36;;;;;;;3.58;2.95;;;22.40;75.30;;;;;;4896149;29;20096;-74
2023/05/01 12:41:05;;;;;;;5.45;2.78;;;22.60;76.70;;;;;;4877754;29;20037;-73
2023/05/01 12:43:34;;;;;;;3.30;2.65;;;22.50;77.00;;;;;;4885124;29;20116;-76
2023/05/01 12:46:02;;;;;;;7.88;4.55;;;22.40;77.30;;;;;;4895683;29;20112;-76
2023/05/01 12:48:30;;;;;;;8.45;3.78;;;22.80;78.70;;;;;;4895918;29;20477;-75
2023/05/01 12:50:56;;;;;;;8.07;3.72;;;22.90;78.70;;;;;;4895888;29;20028;-76
2023/05/01 12:53:24;;;;;;;3.10;2.50;;;23.10;80.60;;;;;;4896150;29;20060;-76